Timewell, Illinois
Current Conditions -  °F | °C
As of 6:35 AM on Thursday 29 Jan 2015 (Local Time) from KUIN Reporting Station
Overcast Overcast  
Wind Chill: 27°   Ceiling: 1500
Heat Index: 37°   Visibility: 7mi
Dew Point: 31°   Wind: 18mph
Humidity: 79%   Direction: 320°NW
Pressure: 29.97"   Gusts: 30mph
Location:  40.01°N, 90.87°W
Report Text: KUIN 291235Z AUTO 32016G26KT 7SM OVC015 03/M01 A2997 RMK AO2 PK WND 31030/1221 T00281006
Loading
Personal Weather Stations






























Interactive Weather Map New forecast layout! Learn more

10-Day Weather Forecast

Advertisements
Track Severe Weather on mobile